Portada
METAR-TAF:

METAR-TAF

Aeropuertos :

Aeropuerto de Clermont-Ferrand/Auvergne

Clermont-Ferrand, Francia

latitud: 45-47N, longitud: 003-10E, altitud: 332 m

Observación

El informe se hizo hace 38 minutos, a las 03:00 UTC
Viento 4 kt del norte, variando entre norte-noroeste y noreste
Temperatura 10°C
Humedad 93%
Presión 1016 hPa
Visibilidad 10 km o más
sin nubes por debajo de 1500 m y sin presencia de cumulonimbus.

METAR: LFLC 160300Z AUTO 01004KT 330V040 CAVOK 10/09 Q1016 NOSIG

Hora: 05:38 (03:38 UTC)

Pronóstico

El informe se hizo hace 1 hora y 38 minutos, a las 02:00 UTC
Pronóstico válido del 16 a las 03 UTC al 17 a las 03 UTC
Viento 2 kt con dirección variable
Visibilidad 10 km o más
sin nubes por debajo de 1500 m y sin presencia de cumulonimbus.
Temporalmente
del 16 a las 11 UTC al 16 a las 16 UTC
Viento 8 kt del sur

TAF: LFLC 160200Z 1603/1703 VRB02KT CAVOK TEMPO 1611/1616 18008KT

Observaciones y pronósticos meteorológicos de más de 4000 aeropuertos (mensajes METAR y TAF).

Los puntos amarillos y rojos representan las estaciones disponibles.

Ponga el ratón en el punto deseado para ver el nombre de la estación.

Haga clic para ver las observaciones y los pronósticos meteorológicos.

Para cambiar el mapa : haga clic en los botones verdes con una cruz de color negro para hacer un zoom, en el botón verde con un guión para alejar o en las flechas verdes para mapas adyacentes.


METAR-TAF: